createdAt,value
2023-02-13T00:03:31.488Z,40
2023-02-13T00:08:52.544Z,39.9
2023-02-13T00:13:59.072Z,39.9
2023-02-13T00:19:36.483Z,39.9
2023-02-13T00:25:14.000Z,39.8
2023-02-13T00:31:05.894Z,39.8
2023-02-13T00:36:44.002Z,39.8
2023-02-13T00:42:05.656Z,39.7
2023-02-13T00:47:43.111Z,39.6
2023-02-13T00:53:05.615Z,39.6
2023-02-13T00:58:42.274Z,39.6
2023-02-13T01:03:33.889Z,39.5
2023-02-13T01:08:56.196Z,39.5
2023-02-13T01:14:17.776Z,39.4
2023-02-13T01:19:54.791Z,39.4
2023-02-13T01:25:31.742Z,39.4
2023-02-13T01:31:09.842Z,39.3
2023-02-13T01:36:47.877Z,39.3
2023-02-13T01:42:25.749Z,39.3
2023-02-13T01:48:05.227Z,39.2
2023-02-13T01:53:41.968Z,39.2
2023-02-13T01:59:03.988Z,39.1
2023-02-13T02:04:42.020Z,39.1
2023-02-13T02:10:04.020Z,39.1
2023-02-13T02:15:40.568Z,39
2023-02-13T02:21:03.108Z,39
2023-02-13T02:26:40.393Z,38.9
2023-02-13T02:32:17.492Z,38.9
2023-02-13T02:37:54.492Z,38.8
2023-02-13T02:43:32.881Z,38.8
2023-02-13T02:49:10.869Z,38.8
2023-02-13T02:54:47.096Z,38.7
2023-02-13T03:00:24.914Z,38.7
2023-02-13T03:06:03.038Z,38.6
2023-02-13T03:11:40.436Z,38.6
2023-02-13T03:17:18.798Z,38.6
2023-02-13T03:22:55.066Z,38.5
2023-02-13T03:28:32.858Z,38.5
2023-02-13T03:34:10.918Z,38.4
2023-02-13T03:39:47.364Z,38.4
2023-02-13T03:45:24.330Z,38.4
2023-02-13T03:51:02.687Z,38.3
2023-02-13T03:56:39.299Z,38.3
2023-02-13T04:02:16.573Z,38.3
2023-02-13T04:07:54.161Z,38.3
2023-02-13T04:13:01.110Z,38.2
2023-02-13T04:18:38.418Z,38.1
2023-02-13T04:24:00.001Z,38.1
2023-02-13T04:29:37.991Z,38.1
2023-02-13T04:35:17.347Z,38
2023-02-13T04:40:54.882Z,38
2023-02-13T04:46:32.844Z,37.9
2023-02-13T04:52:09.909Z,37.9
2023-02-13T04:57:46.678Z,37.9
2023-02-13T05:03:08.523Z,37.8
2023-02-13T05:08:31.540Z,37.8
2023-02-13T05:14:10.179Z,37.8
2023-02-13T05:19:47.683Z,37.6
2023-02-13T05:25:10.028Z,37.5
2023-02-13T05:30:32.220Z,37.1
2023-02-13T05:35:55.576Z,36.9
2023-02-13T05:41:33.487Z,36.9
2023-02-13T05:47:12.122Z,36.9
2023-02-13T05:52:49.970Z,36.7
2023-02-13T05:58:28.014Z,36.7
2023-02-13T06:04:06.050Z,36.6
2023-02-13T06:09:27.385Z,36.6
2023-02-13T06:15:05.683Z,36.6
2023-02-13T06:20:44.080Z,36.6
2023-02-13T06:26:21.567Z,36.5
2023-02-13T06:31:59.988Z,36.4
2023-02-13T06:37:39.492Z,36.4
2023-02-13T06:43:01.349Z,36.4
2023-02-13T06:48:39.681Z,36.4
2023-02-13T06:54:02.319Z,36.3
2023-02-13T06:59:35.993Z,36.3
2023-02-13T07:05:16.157Z,36.3
2023-02-13T07:10:53.566Z,36.3
2023-02-13T07:16:30.200Z,36.3
2023-02-13T07:22:07.126Z,36.2
2023-02-13T07:27:29.444Z,36.2
2023-02-13T07:33:08.420Z,36.1
2023-02-13T07:38:59.037Z,36.1
2023-02-13T07:44:22.079Z,36.1
2023-02-13T07:49:44.409Z,36.1
2023-02-13T07:54:50.580Z,35.9
2023-02-13T08:00:14.230Z,35.9
2023-02-13T08:05:36.361Z,35.8
2023-02-13T08:10:58.313Z,35.8
2023-02-13T08:16:36.547Z,35.8
2023-02-13T08:22:15.633Z,35.8
2023-02-13T08:27:54.290Z,35.8
2023-02-13T08:33:10.759Z,35.8
2023-02-13T08:38:48.303Z,35.7
2023-02-13T08:44:26.766Z,35.7
2023-02-13T08:50:05.545Z,35.6
2023-02-13T08:55:27.757Z,35.6
2023-02-13T09:01:05.903Z,35.6
2023-02-13T09:06:29.235Z,35.6
2023-02-13T09:12:06.628Z,35.5
2023-02-13T09:17:45.059Z,35.5
2023-02-13T09:23:22.443Z,35.4
2023-02-13T09:28:44.931Z,35.4
2023-02-13T09:34:23.681Z,35.4
2023-02-13T09:39:30.241Z,35.4
2023-02-13T09:45:08.130Z,35.3
2023-02-13T09:50:46.303Z,35.3
2023-02-13T09:56:10.715Z,35.3
2023-02-13T10:01:48.955Z,35.3
2023-02-13T10:07:26.217Z,35.2
2023-02-13T10:12:49.409Z,35.2
2023-02-13T10:18:15.821Z,35.2
2023-02-13T10:23:52.729Z,35.2
2023-02-13T10:29:14.380Z,35.1
2023-02-13T10:34:38.402Z,35.1
2023-02-13T10:40:16.901Z,35.1
2023-02-13T10:45:54.528Z,35.5
2023-02-13T10:51:33.637Z,36.1
2023-02-13T10:57:11.046Z,36.7
2023-02-13T11:03:03.789Z,37.6
2023-02-13T11:08:25.163Z,38.3
2023-02-13T11:14:02.360Z,39
2023-02-13T11:19:42.163Z,39.8
2023-02-13T11:25:19.087Z,40.5
2023-02-13T11:30:24.997Z,41.2
2023-02-13T11:36:03.553Z,41.8
2023-02-13T11:41:40.238Z,42.6
2023-02-13T11:47:18.573Z,43.2
2023-02-13T11:52:55.103Z,43.9
2023-02-13T11:58:46.139Z,44.6
2023-02-13T12:03:38.048Z,45.2
2023-02-13T12:08:59.965Z,45.8
2023-02-13T12:14:37.026Z,46.3
2023-02-13T12:20:07.183Z,46.8
2023-02-13T12:25:29.440Z,47.3
2023-02-13T12:31:07.043Z,47.8
2023-02-13T12:36:29.258Z,48.1
2023-02-13T12:42:09.144Z,48.6
2023-02-13T12:47:46.211Z,48.9
2023-02-13T12:53:22.663Z,49.3
2023-02-13T12:58:28.923Z,49.6
2023-02-13T13:04:06.056Z,49.8
2023-02-13T13:09:53.919Z,50
2023-02-13T13:15:31.737Z,50.2
2023-02-13T13:20:52.777Z,50.4
2023-02-13T13:26:30.148Z,50.4
2023-02-13T13:31:52.802Z,50.4
2023-02-13T13:37:15.391Z,50.4
2023-02-13T13:42:52.747Z,50.4
2023-02-13T13:47:58.606Z,50.4
2023-02-13T13:53:04.825Z,50.4
2023-02-13T13:58:27.793Z,50.3
2023-02-13T14:04:07.106Z,50.3
2023-02-13T14:09:30.242Z,50.3
2023-02-13T14:15:09.885Z,50.3
2023-02-13T14:20:32.603Z,50.2
2023-02-13T14:26:09.029Z,50.2
2023-02-13T14:31:54.858Z,50.1
2023-02-13T14:37:19.653Z,50.1
2023-02-13T14:42:41.584Z,50.1
2023-02-13T14:48:19.254Z,50.1
2023-02-13T14:53:56.815Z,50.1
2023-02-13T14:59:33.887Z,50
2023-02-13T15:05:12.040Z,50
2023-02-13T15:10:34.586Z,49.9
2023-02-13T15:16:12.368Z,49.9
2023-02-13T15:21:50.637Z,49.9
2023-02-13T15:26:57.732Z,49.8
2023-02-13T15:32:57.442Z,49.8
2023-02-13T15:38:35.630Z,49.8
2023-02-13T15:43:59.610Z,49.8
2023-02-13T15:49:37.642Z,49.7
2023-02-13T15:55:16.623Z,49.7
2023-02-13T16:00:54.869Z,49.6
2023-02-13T16:06:45.930Z,49.6
2023-02-13T16:12:23.135Z,49.5
2023-02-13T16:18:00.874Z,49.5
2023-02-13T16:23:38.098Z,49.4
2023-02-13T16:29:01.463Z,49.4
2023-02-13T16:34:39.993Z,49.4
2023-02-13T16:40:17.462Z,49.4
2023-02-13T16:45:38.742Z,49.3
2023-02-13T16:51:02.139Z,49.3
2023-02-13T16:56:41.076Z,49.3
2023-02-13T17:02:17.714Z,49.2
2023-02-13T17:07:55.259Z,49.1
2023-02-13T17:13:16.371Z,49.1
2023-02-13T17:18:53.427Z,49.1
2023-02-13T17:24:32.682Z,49.1
2023-02-13T17:29:56.789Z,49
2023-02-13T17:35:35.341Z,49
2023-02-13T17:41:12.383Z,48.9
2023-02-13T17:46:51.194Z,49.8
2023-02-13T17:52:39.716Z,50.8
2023-02-13T17:58:16.079Z,51.9
2023-02-13T18:03:55.489Z,52.6
2023-02-13T18:09:33.363Z,52.8
2023-02-13T18:14:39.364Z,52.8
2023-02-13T18:20:18.806Z,52.8
2023-02-13T18:25:56.040Z,52.8
2023-02-13T18:31:19.384Z,52.8
2023-02-13T18:36:59.114Z,52.8
2023-02-13T18:42:21.044Z,52.8
2023-02-13T18:47:53.491Z,52.8
2023-02-13T18:53:31.979Z,52.7
2023-02-13T18:58:53.298Z,52.7
2023-02-13T19:04:30.464Z,52.7
2023-02-13T19:10:08.542Z,52.7
2023-02-13T19:15:45.799Z,52.6
2023-02-13T19:21:23.364Z,52.6
2023-02-13T19:26:30.181Z,52.6
2023-02-13T19:31:52.663Z,52.5
2023-02-13T19:37:14.791Z,52.5
2023-02-13T19:43:04.274Z,52.4
2023-02-13T19:59:14.494Z,52.3
2023-02-13T20:04:54.111Z,52.3
2023-02-13T20:10:16.094Z,52.3
2023-02-13T20:15:23.209Z,52.3
2023-02-13T20:20:45.527Z,52.2
2023-02-13T20:26:24.106Z,52.1
2023-02-13T20:31:38.325Z,52.1
2023-02-13T20:37:03.372Z,52.1
2023-02-13T20:42:26.845Z,52.1
2023-02-13T20:47:50.342Z,52
2023-02-13T20:53:12.488Z,52
2023-02-13T21:08:37.795Z,51.9
2023-02-13T21:14:16.029Z,51.8
2023-02-13T21:19:53.565Z,51.8
2023-02-13T21:24:59.976Z,51.8
2023-02-13T21:30:22.398Z,51.8
2023-02-13T21:36:00.666Z,51.6
2023-02-13T21:41:38.349Z,51.5
2023-02-13T21:47:16.408Z,51.4
2023-02-13T21:52:53.463Z,51.3
2023-02-13T21:58:33.793Z,51.3
2023-02-13T22:04:03.103Z,51.3
2023-02-13T22:09:40.106Z,51.2
2023-02-13T22:15:16.886Z,51.1
2023-02-13T22:20:54.705Z,51.1
2023-02-13T22:26:32.211Z,51.1
2023-02-13T22:32:15.007Z,51
2023-02-13T22:38:01.401Z,50.9
2023-02-13T22:43:37.370Z,50.9
2023-02-13T22:49:14.596Z,50.8
2023-02-13T22:54:52.252Z,50.8
2023-02-13T23:00:14.258Z,50.8
2023-02-13T23:05:21.661Z,50.7
2023-02-13T23:10:59.626Z,50.6
2023-02-13T23:16:23.129Z,50.6
2023-02-13T23:21:45.004Z,50.6
2023-02-13T23:27:06.885Z,50.5
2023-02-13T23:32:14.887Z,50.4
2023-02-13T23:37:36.879Z,50.4
2023-02-13T23:42:59.482Z,50.4
2023-02-13T23:48:21.840Z,50.3
2023-02-13T23:53:43.695Z,50.3
2023-02-13T23:59:21.842Z,50.3
